Time;durP1;ratioP1;P1;durP2;ratioP2;P2;SDS_P1;SDS_P2;PMS_P1;PMS_P2;Temp;Humidity;BMP_temperature;BMP_pressure;BME280_temperature;BME280_humidity;BME280_pressure;Samples;Min_cycle;Max_cycle;Signal;HPM_P1;HPM_P2
2022/06/19 00:00:20;;;;;;;6.05;2.95;;;21.90;99.90;;;;;;2604097;46;20030;31
2022/06/19 00:02:57;;;;;;;8.50;3.60;;;22.00;99.90;;;;;;2585677;54;20955;31
2022/06/19 00:05:32;;;;;;;7.83;3.70;;;21.90;99.90;;;;;;2585369;54;20896;31
2022/06/19 00:08:07;;;;;;;6.73;3.33;;;21.90;99.90;;;;;;2585406;54;20121;31
2022/06/19 00:10:42;;;;;;;6.22;2.90;;;21.90;99.90;;;;;;2603967;46;20085;31
2022/06/19 00:13:20;;;;;;;6.73;3.60;;;21.80;99.90;;;;;;2604258;46;20855;31
2022/06/19 00:15:59;;;;;;;5.63;3.73;;;21.70;99.90;;;;;;2683717;39;21099;31
2022/06/19 00:18:34;;;;;;;5.30;3.50;;;21.70;99.90;;;;;;2593714;46;20070;31
2022/06/19 00:21:11;;;;;;;7.10;4.10;;;21.50;99.90;;;;;;2683489;39;20459;31
2022/06/19 00:23:47;;;;;;;7.60;3.83;;;21.50;99.90;;;;;;2603725;46;20806;31
2022/06/19 00:26:23;;;;;;;5.90;3.57;;;21.40;99.90;;;;;;2585536;54;20886;31
2022/06/19 00:29:03;;;;;;;6.50;4.00;;;21.40;99.90;;;;;;2584704;54;20085;31
2022/06/19 00:31:37;;;;;;;9.90;4.70;;;21.40;99.90;;;;;;2585401;54;20094;31
2022/06/19 00:34:14;;;;;;;6.83;3.77;;;21.30;99.90;;;;;;2585445;54;20109;31
2022/06/19 00:36:50;;;;;;;7.07;3.47;;;21.20;99.90;;;;;;2585505;54;20901;31
2022/06/19 00:39:26;;;;;;;6.13;3.45;;;21.10;99.90;;;;;;2585394;54;20032;31
2022/06/19 00:42:04;;;;;;;7.20;3.50;;;21.20;99.90;;;;;;2585643;54;20089;31
2022/06/19 00:44:41;;;;;;;6.85;3.20;;;21.10;99.90;;;;;;2585516;54;20868;31
2022/06/19 00:47:19;;;;;;;5.00;3.00;;;21.10;99.90;;;;;;2585456;54;20837;31
2022/06/19 00:49:57;;;;;;;6.38;3.90;;;21.20;99.90;;;;;;2603730;46;20034;31
2022/06/19 00:52:35;;;;;;;5.45;3.45;;;21.20;99.90;;;;;;2585275;54;20129;31
2022/06/19 00:55:12;;;;;;;8.95;4.20;;;21.10;99.90;;;;;;2585460;54;20959;31
2022/06/19 00:57:50;;;;;;;7.90;4.10;;;21.10;99.90;;;;;;2585345;54;21969;31
2022/06/19 01:00:29;;;;;;;6.47;3.78;;;21.10;99.90;;;;;;2604022;46;20937;31
2022/06/19 01:03:08;;;;;;;7.60;3.45;;;21.10;99.90;;;;;;2584427;54;20889;31
2022/06/19 01:05:46;;;;;;;8.73;3.80;;;21.00;99.90;;;;;;2584171;54;20835;31
2022/06/19 01:08:24;;;;;;;6.35;3.60;;;20.90;99.90;;;;;;2584926;54;20037;31
2022/06/19 01:10:59;;;;;;;7.93;4.27;;;20.90;99.90;;;;;;2585465;54;20022;31
2022/06/19 01:13:36;;;;;;;9.10;4.05;;;20.90;99.90;;;;;;2585333;54;20110;31
2022/06/19 01:16:13;;;;;;;5.38;3.60;;;20.90;99.90;;;;;;2585120;54;21113;31
2022/06/19 01:18:52;;;;;;;7.13;3.70;;;20.90;99.90;;;;;;2603379;46;20153;31
2022/06/19 01:21:40;;;;;;;4.55;3.10;;;20.80;99.90;;;;;;2603706;46;20887;31
2022/06/19 01:24:29;;;;;;;6.80;3.80;;;20.80;99.90;;;;;;2603614;46;20037;31
2022/06/19 01:28:45;;;;;;;9.20;4.70;;;20.70;99.90;;;;;;2584956;54;21025;31
2022/06/19 01:30:13;;;;;;;8.75;4.28;;;20.60;99.90;;;;;;2585282;54;20914;31
2022/06/19 01:32:53;;;;;;;5.63;3.60;;;20.60;99.90;;;;;;2585472;54;20030;31
2022/06/19 01:35:30;;;;;;;9.73;4.38;;;20.50;99.90;;;;;;2585047;54;20899;31
2022/06/19 01:38:12;;;;;;;7.47;3.83;;;20.40;99.90;;;;;;2585059;54;20976;31
2022/06/19 01:40:55;;;;;;;7.22;4.10;;;20.40;99.90;;;;;;2584896;54;20907;31
2022/06/19 01:43:37;;;;;;;7.97;4.23;;;20.40;99.90;;;;;;2584973;54;20026;31
2022/06/19 01:46:14;;;;;;;6.30;4.25;;;20.30;99.90;;;;;;2585582;54;22677;31
2022/06/19 01:48:50;;;;;;;7.93;3.70;;;20.30;99.90;;;;;;2585296;54;20535;31
2022/06/19 01:51:23;;;;;;;;;;;20.30;99.90;;;;;;2585604;54;22507;31
2022/06/19 01:54:06;;;;;;;8.43;4.23;;;20.20;99.90;;;;;;2683039;39;22215;31
2022/06/19 01:56:43;;;;;;;11.83;4.20;;;20.10;99.90;;;;;;2585188;54;20949;31
2022/06/19 01:59:18;;;;;;;5.20;3.55;;;20.10;99.90;;;;;;2585336;54;21150;31
2022/06/19 02:01:58;;;;;;;5.47;3.83;;;20.10;99.90;;;;;;2585256;54;20022;31
2022/06/19 02:04:33;;;;;;;5.40;3.65;;;20.00;99.90;;;;;;2585281;54;20053;31
2022/06/19 02:07:13;;;;;;;6.37;4.40;;;20.00;99.90;;;;;;2585210;54;20063;31
2022/06/19 02:09:49;;;;;;;6.63;4.47;;;20.00;99.90;;;;;;2603374;47;20805;31
2022/06/19 02:12:22;;;;;;;7.33;3.90;;;20.00;99.90;;;;;;2596321;47;20929;31
2022/06/19 02:15:00;;;;;;;6.60;3.72;;;20.00;99.90;;;;;;2584411;54;21875;31
2022/06/19 02:17:42;;;;;;;7.50;4.30;;;20.00;99.90;;;;;;2585459;54;20816;31
2022/06/19 02:20:18;;;;;;;6.80;4.30;;;20.00;99.90;;;;;;2585755;54;20026;31
2022/06/19 02:22:52;;;;;;;8.27;4.33;;;20.00;99.90;;;;;;2604373;46;20042;31
2022/06/19 02:25:27;;;;;;;11.70;4.20;;;19.90;99.90;;;;;;2585359;54;21002;31
2022/06/19 02:28:07;;;;;;;5.80;3.85;;;19.90;99.90;;;;;;2585180;54;20804;31
2022/06/19 02:30:39;;;;;;;12.23;4.63;;;19.80;99.90;;;;;;2585083;54;21179;31
2022/06/19 02:33:19;;;;;;;5.60;3.90;;;19.80;99.90;;;;;;2584982;54;20030;31
2022/06/19 02:36:01;;;;;;;6.90;4.65;;;19.70;99.90;;;;;;2593919;46;21114;31
2022/06/19 02:38:36;;;;;;;5.97;3.90;;;19.70;99.90;;;;;;2584832;54;20973;31
2022/06/19 02:41:16;;;;;;;7.35;3.75;;;19.60;99.90;;;;;;2585800;54;20963;31
2022/06/19 02:43:49;;;;;;;5.73;3.90;;;19.50;99.90;;;;;;2604635;46;20037;31
2022/06/19 02:46:28;;;;;;;9.15;4.10;;;19.50;99.90;;;;;;2585712;54;20850;31
2022/06/19 02:49:05;;;;;;;9.65;4.10;;;19.40;99.90;;;;;;2585932;54;20133;31
2022/06/19 02:51:42;;;;;;;8.17;4.40;;;19.30;99.90;;;;;;2586080;54;21264;31
2022/06/19 02:54:15;;;;;;;5.55;3.70;;;19.30;99.90;;;;;;2604262;46;20160;31
2022/06/19 02:56:51;;;;;;;5.65;3.92;;;19.20;99.90;;;;;;2585784;54;20093;31
2022/06/19 02:59:25;;;;;;;5.55;4.35;;;19.20;99.90;;;;;;2585800;54;20026;31
2022/06/19 03:01:59;;;;;;;10.70;3.92;;;19.20;99.90;;;;;;2604037;46;20790;31
2022/06/19 03:04:39;;;;;;;7.40;3.75;;;19.20;99.90;;;;;;2585013;54;20022;31
2022/06/19 03:07:15;;;;;;;5.90;3.83;;;19.10;99.90;;;;;;2604119;46;20992;31
2022/06/19 03:09:52;;;;;;;8.00;4.20;;;19.10;99.90;;;;;;2585849;54;20033;31
2022/06/19 03:12:25;;;;;;;7.97;3.33;;;19.10;99.90;;;;;;2585991;54;22483;31
2022/06/19 03:15:02;;;;;;;5.77;3.87;;;19.10;99.90;;;;;;2585928;54;20238;31
2022/06/19 03:17:35;;;;;;;6.07;3.63;;;19.10;99.90;;;;;;2604148;46;20882;31
2022/06/19 03:20:17;;;;;;;6.82;4.05;;;19.10;99.90;;;;;;2754973;31;21234;31
2022/06/19 03:22:51;;;;;;;6.38;3.80;;;19.10;99.90;;;;;;2585430;54;20754;31
2022/06/19 03:25:29;;;;;;;7.18;3.70;;;19.10;99.90;;;;;;2586007;54;20945;31
2022/06/19 03:28:05;;;;;;;4.23;3.50;;;19.10;99.90;;;;;;2585747;54;21135;31
2022/06/19 03:30:42;;;;;;;5.77;3.80;;;19.10;99.90;;;;;;2585659;54;20992;31
2022/06/19 03:33:19;;;;;;;7.20;3.95;;;19.10;99.90;;;;;;2584661;54;20847;31
2022/06/19 03:36:03;;;;;;;4.73;3.70;;;19.20;99.90;;;;;;2585004;54;20035;31
2022/06/19 03:38:36;;;;;;;4.68;3.47;;;19.20;99.90;;;;;;2585793;54;20085;31
2022/06/19 03:41:14;;;;;;;5.20;3.50;;;19.30;99.90;;;;;;2585331;54;20780;31
2022/06/19 03:43:51;;;;;;;5.10;3.40;;;19.30;99.90;;;;;;2585651;54;20038;31
2022/06/19 03:46:26;;;;;;;7.55;3.35;;;19.30;99.90;;;;;;2603934;46;20903;31
2022/06/19 03:49:00;;;;;;;8.70;3.65;;;19.40;99.90;;;;;;2585061;54;20032;31
2022/06/19 03:51:39;;;;;;;5.15;3.33;;;19.40;99.90;;;;;;2603870;46;20995;31
2022/06/19 03:54:16;;;;;;;7.85;3.50;;;19.60;99.90;;;;;;2584847;54;20022;31
2022/06/19 03:56:52;;;;;;;4.65;3.05;;;19.60;99.90;;;;;;2585496;54;20120;31
2022/06/19 03:59:25;;;;;;;5.47;3.47;;;19.70;99.90;;;;;;2604152;46;20930;31
2022/06/19 04:01:59;;;;;;;3.75;3.22;;;19.90;99.90;;;;;;2603208;46;20045;31
2022/06/19 04:04:34;;;;;;;6.63;3.37;;;19.90;99.90;;;;;;2603674;46;20030;31
2022/06/19 04:07:15;;;;;;;4.85;2.83;;;20.00;99.90;;;;;;2585556;54;20033;31
2022/06/19 04:09:52;;;;;;;7.97;3.97;;;20.10;99.90;;;;;;2585490;54;20897;31
2022/06/19 04:12:25;;;;;;;4.65;3.10;;;20.20;99.90;;;;;;2604080;46;22436;31
2022/06/19 04:14:59;;;;;;;6.78;3.60;;;20.30;99.90;;;;;;2603684;46;21048;31
2022/06/19 04:17:34;;;;;;;3.92;3.47;;;20.30;99.90;;;;;;2701736;39;21114;31
2022/06/19 04:20:10;;;;;;;5.88;3.35;;;20.40;99.90;;;;;;2603666;46;20124;31
2022/06/19 04:22:49;;;;;;;4.82;3.40;;;20.50;99.90;;;;;;2585582;54;20078;31
2022/06/19 04:25:28;;;;;;;6.60;3.28;;;20.60;99.90;;;;;;2585503;54;20038;31
2022/06/19 04:28:03;;;;;;;5.50;3.25;;;20.70;99.90;;;;;;2584646;54;20965;31
2022/06/19 04:30:40;;;;;;;4.57;3.60;;;20.90;99.90;;;;;;2585546;54;20052;31
2022/06/19 04:33:16;;;;;;;6.10;3.25;;;21.00;99.90;;;;;;2603814;46;20917;31
2022/06/19 04:35:53;;;;;;;3.58;3.00;;;21.10;99.90;;;;;;2585409;54;21062;31
2022/06/19 04:38:31;;;;;;;;;;;21.30;99.90;;;;;;2585617;54;20030;31
2022/06/19 04:41:05;;;;;;;;;;;21.40;99.90;;;;;;2585618;54;22339;31
2022/06/19 04:43:43;;;;;;;4.93;3.00;;;21.50;99.90;;;;;;2585707;54;21836;31
2022/06/19 04:48:50;;;;;;;5.10;3.10;;;21.90;99.90;;;;;;2604137;46;20583;31
2022/06/19 04:51:25;;;;;;;6.05;3.33;;;22.10;99.90;;;;;;2585393;54;20385;31
2022/06/19 04:54:04;;;;;;;7.03;3.13;;;22.20;99.90;;;;;;2585158;54;20924;31
2022/06/19 04:56:41;;;;;;;6.07;3.10;;;22.50;99.90;;;;;;2683438;39;22340;31
2022/06/19 04:59:19;;;;;;;4.60;2.50;;;22.80;99.90;;;;;;2603021;46;21328;31
2022/06/19 05:01:56;;;;;;;5.57;2.47;;;23.00;99.90;;;;;;2585322;54;20070;31
2022/06/19 05:04:34;;;;;;;3.38;2.47;;;23.30;99.90;;;;;;2604243;46;20053;31
2022/06/19 05:07:08;;;;;;;6.38;2.42;;;23.50;99.90;;;;;;2604096;46;20940;31
2022/06/19 05:09:47;;;;;;;4.53;2.10;;;23.70;99.90;;;;;;2585494;54;22555;31
2022/06/19 05:12:25;;;;;;;6.50;2.23;;;23.90;99.90;;;;;;2752844;31;20592;31
2022/06/19 05:15:00;;;;;;;4.28;2.22;;;24.10;99.90;;;;;;2601339;46;20039;31
2022/06/19 05:17:36;;;;;;;6.55;1.80;;;24.40;99.90;;;;;;2584619;54;20034;31
2022/06/19 05:20:15;;;;;;;5.78;1.85;;;24.60;99.90;;;;;;2772634;31;22437;31
2022/06/19 05:22:49;;;;;;;6.15;1.45;;;24.80;99.90;;;;;;2701881;39;21260;31
2022/06/19 05:25:27;;;;;;;5.00;1.58;;;25.00;99.90;;;;;;2584229;54;21031;31
2022/06/19 05:28:01;;;;;;;5.25;1.42;;;25.30;99.90;;;;;;2585569;54;22525;31
2022/06/19 05:30:38;;;;;;;6.73;2.00;;;25.60;99.90;;;;;;2585048;54;20913;31
2022/06/19 05:33:15;;;;;;;4.70;1.70;;;25.70;99.90;;;;;;2585238;54;20038;31
2022/06/19 05:35:57;;;;;;;4.27;1.80;;;26.10;99.90;;;;;;2603798;46;20129;31
2022/06/19 05:38:32;;;;;;;3.05;1.75;;;26.30;99.90;;;;;;2585066;54;20251;31
2022/06/19 05:41:09;;;;;;;;;;;26.60;99.90;;;;;;2585323;54;20062;31
2022/06/19 05:43:44;;;;;;;3.38;1.63;;;26.80;99.90;;;;;;2603811;46;21807;31
2022/06/19 05:46:21;;;;;;;7.67;1.77;;;27.00;99.90;;;;;;2585022;54;20026;31
2022/06/19 05:48:57;;;;;;;2.60;1.60;;;27.00;99.90;;;;;;2584761;54;21061;31
2022/06/19 05:51:36;;;;;;;4.13;1.65;;;27.20;99.90;;;;;;2584952;54;20027;31
2022/06/19 05:54:12;;;;;;;2.05;1.30;;;27.40;99.90;;;;;;2584127;54;20577;31
2022/06/19 05:56:52;;;;;;;3.47;1.77;;;27.60;99.90;;;;;;2584897;54;20886;31
2022/06/19 05:59:27;;;;;;;3.38;1.80;;;27.80;99.90;;;;;;2584833;54;20031;31
2022/06/19 06:02:04;;;;;;;3.03;2.03;;;27.90;99.90;;;;;;2584135;54;20899;31
2022/06/19 06:04:42;;;;;;;6.70;1.65;;;28.10;99.90;;;;;;2584786;54;21221;31
2022/06/19 06:07:26;;;;;;;;;;;28.20;99.90;;;;;;2585159;54;20030;31
2022/06/19 06:10:00;;;;;;;3.78;1.88;;;28.40;99.90;;;;;;2602829;47;19946;31
2022/06/19 06:12:41;;;;;;;6.60;1.67;;;28.50;99.90;;;;;;2584847;54;20912;31
2022/06/19 06:15:17;;;;;;;8.52;2.03;;;28.50;99.90;;;;;;2603168;47;21029;31
2022/06/19 06:17:50;;;;;;;5.80;2.15;;;28.50;99.90;;;;;;2584868;54;20108;31
2022/06/19 06:20:29;;;;;;;10.52;1.65;;;28.60;99.90;;;;;;2584340;54;20969;31
2022/06/19 06:23:05;;;;;;;6.43;1.90;;;28.80;99.90;;;;;;2584771;54;20943;31
2022/06/19 06:25:50;;;;;;;4.47;1.55;;;29.00;99.90;;;;;;2584905;54;20313;31
2022/06/19 06:28:32;;;;;;;;;;;29.20;99.90;;;;;;2585002;54;20118;31
2022/06/19 06:31:13;;;;;;;6.05;1.50;;;29.50;99.20;;;;;;2603582;47;19935;31
2022/06/19 06:33:50;;;;;;;7.10;1.80;;;29.50;98.40;;;;;;2603589;47;20027;31
2022/06/19 06:36:26;;;;;;;4.95;1.63;;;29.60;98.30;;;;;;2584734;54;20970;31
2022/06/19 06:39:03;;;;;;;5.40;1.90;;;29.70;98.00;;;;;;2584585;54;20992;31
2022/06/19 06:41:44;;;;;;;3.25;1.80;;;29.80;98.10;;;;;;2584522;54;20845;31
2022/06/19 06:44:33;;;;;;;3.38;1.65;;;29.80;97.80;;;;;;2603395;47;19934;31
2022/06/19 06:47:21;;;;;;;7.82;1.55;;;30.00;97.50;;;;;;2584474;54;20764;31
2022/06/19 06:50:15;;;;;;;8.20;1.90;;;30.00;97.20;;;;;;2584951;54;22395;31
2022/06/19 06:52:55;;;;;;;5.18;1.50;;;30.20;96.80;;;;;;2583893;47;20860;31
2022/06/19 06:55:33;;;;;;;3.97;2.10;;;30.30;96.30;;;;;;2584846;54;21334;31
2022/06/19 06:58:11;;;;;;;3.37;1.50;;;30.50;96.50;;;;;;2584678;54;20913;31
2022/06/19 07:00:45;;;;;;;4.45;1.40;;;30.60;96.50;;;;;;2584543;54;20093;31
2022/06/19 07:06:19;;;;;;;4.80;1.50;;;31.10;95.70;;;;;;2584592;54;20735;31
2022/06/19 07:09:07;;;;;;;6.45;1.67;;;31.20;95.20;;;;;;2584531;54;20056;31
2022/06/19 07:11:52;;;;;;;5.60;1.33;;;31.30;94.60;;;;;;2585468;54;20056;31
2022/06/19 07:14:41;;;;;;;4.63;1.77;;;31.50;95.40;;;;;;2585222;54;20939;31
2022/06/19 07:17:24;;;;;;;3.85;1.50;;;31.70;94.40;;;;;;2585022;54;21140;31
2022/06/19 07:20:09;;;;;;;3.80;1.48;;;31.70;93.70;;;;;;2585409;54;20026;31
2022/06/19 07:22:51;;;;;;;3.58;1.70;;;31.70;93.40;;;;;;2585110;54;20026;31
2022/06/19 07:25:35;;;;;;;3.15;1.48;;;31.90;93.50;;;;;;2585259;54;20829;31
2022/06/19 07:28:11;;;;;;;6.82;1.40;;;32.00;93.60;;;;;;2585443;54;20919;31
2022/06/19 07:30:51;;;;;;;8.35;1.90;;;32.40;93.60;;;;;;2593771;46;20009;31
2022/06/19 07:33:31;;;;;;;4.05;1.45;;;32.70;93.00;;;;;;2584739;54;20125;31
2022/06/19 07:36:50;;;;;;;5.45;1.60;;;32.90;92.40;;;;;;2584811;54;20061;31
2022/06/19 07:42:46;;;;;;;5.85;1.70;;;33.20;90.80;;;;;;2604509;46;20779;31
2022/06/19 07:45:30;;;;;;;4.50;1.87;;;33.10;90.80;;;;;;2683423;39;20508;31
2022/06/19 08:00:57;;;;;;;6.60;1.37;;;33.90;90.40;;;;;;2585745;54;20117;31
2022/06/19 08:06:55;;;;;;;11.43;2.08;;;34.10;86.70;;;;;;2585841;54;20093;31
2022/06/19 08:09:48;;;;;;;2.90;1.40;;;34.20;85.50;;;;;;2592323;46;20053;31
2022/06/19 08:18:05;;;;;;;3.33;1.13;;;34.40;85.40;;;;;;2585895;54;20172;31
2022/06/19 08:26:55;;;;;;;4.95;1.40;;;35.00;84.00;;;;;;2602068;46;20057;31
2022/06/19 08:29:51;;;;;;;4.28;1.60;;;35.00;81.50;;;;;;2586010;54;20030;31
2022/06/19 08:32:45;;;;;;;3.07;1.40;;;35.10;81.30;;;;;;2585817;54;20106;31
2022/06/19 08:35:24;;;;;;;4.27;1.70;;;35.40;82.70;;;;;;2585977;54;20242;31
2022/06/19 08:41:24;;;;;;;2.97;1.42;;;35.60;79.70;;;;;;2585127;54;21021;31
2022/06/19 08:44:29;;;;;;;4.63;1.70;;;35.50;79.50;;;;;;2585721;54;20786;31
2022/06/19 08:47:22;;;;;;;5.22;1.83;;;35.60;79.50;;;;;;2604098;46;20947;31
2022/06/19 08:50:07;;;;;;;5.65;1.60;;;35.50;78.90;;;;;;2585774;54;20030;31
2022/06/19 08:52:55;;;;;;;4.10;1.60;;;35.60;78.20;;;;;;2586041;54;20026;31
2022/06/19 08:55:40;;;;;;;3.83;1.30;;;35.60;77.10;;;;;;2604138;46;20026;31
2022/06/19 08:58:27;;;;;;;6.55;1.30;;;35.60;76.50;;;;;;2585722;54;20018;31
2022/06/19 09:01:13;;;;;;;5.18;1.50;;;35.60;76.80;;;;;;2585541;54;20022;31
2022/06/19 09:07:06;;;;;;;5.10;1.38;;;35.50;76.00;;;;;;2603951;46;20033;31
2022/06/19 09:10:02;;;;;;;6.15;1.50;;;35.70;76.00;;;;;;2590084;46;20030;31
2022/06/19 09:13:13;;;;;;;3.22;1.85;;;35.70;76.00;;;;;;2585759;54;20976;31
2022/06/19 09:15:55;;;;;;;5.15;1.60;;;35.80;76.20;;;;;;2585588;54;20030;31
2022/06/19 09:18:42;;;;;;;4.88;1.50;;;35.60;76.60;;;;;;2585599;54;20169;31
2022/06/19 09:21:15;;;;;;;3.83;1.87;;;35.40;75.80;;;;;;2585718;54;20027;31
2022/06/19 09:27:29;;;;;;;6.57;1.20;;;35.00;76.40;;;;;;2585342;54;20081;31
2022/06/19 09:36:07;;;;;;;4.00;1.30;;;35.20;75.40;;;;;;2585451;54;20944;31
2022/06/19 09:42:19;;;;;;;6.05;1.50;;;35.00;74.60;;;;;;2585237;54;20880;31
2022/06/19 09:48:29;;;;;;;4.33;1.30;;;35.10;75.00;;;;;;2603346;46;20033;31
2022/06/19 09:51:11;;;;;;;6.43;1.30;;;35.30;75.10;;;;;;2585522;54;20891;31
2022/06/19 10:00:17;;;;;;;4.33;1.47;;;35.70;73.50;;;;;;2585405;54;20138;31
2022/06/19 10:03:18;;;;;;;7.15;1.40;;;36.00;73.20;;;;;;2585141;54;21135;31
2022/06/19 10:05:54;;;;;;;11.63;1.30;;;36.00;73.10;;;;;;2603921;47;20135;31
2022/06/19 10:19:14;;;;;;;9.23;1.52;;;35.60;71.00;;;;;;2584010;54;20078;31
2022/06/19 10:31:38;;;;;;;11.50;1.60;;;35.40;70.50;;;;;;2585315;54;20026;31
2022/06/19 10:45:08;;;;;;;10.07;2.28;;;35.00;69.70;;;;;;2586196;54;20904;31
2022/06/19 10:47:59;;;;;;;;;;;;;;;;;;;;;
2022/06/19 10:50:51;;;;;;;9.95;1.50;;;34.40;70.30;;;;;;2586002;54;20891;31
2022/06/19 10:53:43;;;;;;;10.45;1.40;;;34.30;69.50;;;;;;2586271;54;20026;31
2022/06/19 10:56:46;;;;;;;7.00;1.50;;;34.40;71.00;;;;;;2586289;54;20026;31
2022/06/19 11:05:39;;;;;;;15.23;1.97;;;34.60;69.20;;;;;;2586302;54;20045;31
2022/06/19 11:08:18;;;;;;;5.25;1.40;;;34.70;69.30;;;;;;2586291;54;20893;31
2022/06/19 11:10:52;;;;;;;13.60;1.67;;;34.70;69.30;;;;;;2586210;54;20054;31
2022/06/19 11:13:45;;;;;;;6.13;1.30;;;34.70;69.60;;;;;;2586157;54;20022;31
2022/06/19 11:16:23;;;;;;;7.10;1.33;;;34.60;69.60;;;;;;2585774;54;20903;31
2022/06/19 11:19:04;;;;;;;8.25;1.45;;;34.60;70.00;;;;;;2592083;46;21167;31
2022/06/19 11:21:39;;;;;;;7.93;1.30;;;34.40;70.00;;;;;;2586060;54;20026;31
2022/06/19 11:24:42;;;;;;;8.93;2.40;;;34.40;69.70;;;;;;2585614;54;20834;31
2022/06/19 11:27:22;;;;;;;6.82;1.77;;;34.20;69.00;;;;;;2585221;54;20105;31
2022/06/19 11:30:09;;;;;;;7.90;1.83;;;34.20;68.80;;;;;;2684152;39;22367;31
2022/06/19 11:33:17;;;;;;;11.05;1.75;;;34.10;68.20;;;;;;2586125;54;20950;31
2022/06/19 11:36:01;;;;;;;5.90;1.30;;;34.10;68.50;;;;;;2604020;46;20113;31
2022/06/19 11:41:36;;;;;;;4.97;1.43;;;34.00;68.30;;;;;;2586019;54;20037;31
2022/06/19 11:44:17;;;;;;;8.07;1.95;;;33.90;67.80;;;;;;2690034;39;21048;31
2022/06/19 11:46:53;;;;;;;4.60;1.60;;;33.90;66.50;;;;;;2586185;54;20873;31
2022/06/19 11:49:35;;;;;;;8.45;1.90;;;34.10;68.30;;;;;;2683883;39;22464;31
2022/06/19 11:52:19;;;;;;;5.20;1.45;;;34.10;66.80;;;;;;2585736;54;20731;31
2022/06/19 11:54:55;;;;;;;6.72;1.95;;;34.10;67.60;;;;;;2586057;54;20830;31
2022/06/19 11:57:39;;;;;;;10.13;1.60;;;34.20;66.80;;;;;;2604351;46;20098;31
2022/06/19 12:00:28;;;;;;;6.35;1.50;;;34.10;66.40;;;;;;2585954;54;20266;31
2022/06/19 12:03:02;;;;;;;8.27;1.50;;;34.10;67.20;;;;;;2683332;39;22309;31
2022/06/19 12:05:39;;;;;;;5.80;1.30;;;34.20;67.30;;;;;;2584643;54;20873;31
2022/06/19 12:08:24;;;;;;;7.63;1.67;;;34.20;67.70;;;;;;2604140;46;20108;31
2022/06/19 12:11:00;;;;;;;9.95;1.75;;;34.10;69.10;;;;;;2585964;54;20034;31
2022/06/19 12:13:44;;;;;;;6.05;1.42;;;34.20;69.40;;;;;;2604283;46;20053;31
2022/06/19 12:16:20;;;;;;;7.65;1.58;;;34.30;69.30;;;;;;2586167;54;21034;31
2022/06/19 12:18:57;;;;;;;6.35;1.25;;;34.30;69.20;;;;;;2585758;54;20027;31
2022/06/19 12:21:38;;;;;;;5.10;1.40;;;34.40;70.00;;;;;;2604078;46;20026;31
2022/06/19 12:24:15;;;;;;;10.85;2.30;;;34.30;69.00;;;;;;2585981;54;20949;31
2022/06/19 12:26:51;;;;;;;5.63;1.97;;;34.30;69.30;;;;;;2584852;54;20042;31
2022/06/19 12:29:32;;;;;;;7.95;1.95;;;34.20;69.50;;;;;;2600204;46;20062;31
2022/06/19 12:32:17;;;;;;;5.75;1.70;;;34.20;69.80;;;;;;2604251;46;20023;31
2022/06/19 12:35:01;;;;;;;8.00;1.85;;;34.10;69.70;;;;;;2585632;54;20054;31
2022/06/19 12:37:39;;;;;;;7.93;2.20;;;33.90;69.80;;;;;;2585934;54;20054;31
2022/06/19 12:40:18;;;;;;;14.10;2.55;;;33.90;70.30;;;;;;2585735;54;20926;31
2022/06/19 12:42:56;;;;;;;10.87;2.10;;;34.00;70.50;;;;;;2585673;54;20027;31
2022/06/19 12:48:27;;;;;;;7.30;1.40;;;33.90;70.00;;;;;;2585820;54;20066;31
2022/06/19 12:54:00;;;;;;;8.10;2.22;;;33.70;70.70;;;;;;2604326;46;22300;31
2022/06/19 12:56:41;;;;;;;14.00;2.10;;;33.60;70.90;;;;;;2585873;54;20969;31
2022/06/19 13:02:24;;;;;;;7.90;2.08;;;33.40;69.60;;;;;;2584542;54;20078;31
2022/06/19 13:05:05;;;;;;;9.95;1.42;;;33.40;69.80;;;;;;2603230;46;20927;31
2022/06/19 13:07:46;;;;;;;8.13;1.70;;;33.30;69.90;;;;;;2584810;54;22569;31
2022/06/19 13:11:04;;;;;;;13.05;1.77;;;33.30;69.50;;;;;;2603910;46;20897;31
2022/06/19 13:14:06;;;;;;;15.85;2.20;;;33.30;69.90;;;;;;2603631;46;20030;31
2022/06/19 13:16:40;;;;;;;12.80;2.40;;;33.40;69.80;;;;;;2754752;31;22388;31
2022/06/19 13:19:24;;;;;;;7.03;2.33;;;33.40;69.20;;;;;;2585885;54;20939;31
2022/06/19 13:22:06;;;;;;;14.00;3.00;;;33.50;69.60;;;;;;2585625;54;20997;31
2022/06/19 13:24:50;;;;;;;8.00;1.45;;;33.50;69.90;;;;;;2585874;54;20777;31
2022/06/19 13:27:34;;;;;;;9.63;1.70;;;33.60;69.20;;;;;;2587150;46;20986;31
2022/06/19 13:30:22;;;;;;;9.43;1.88;;;33.60;69.00;;;;;;2585535;54;20026;31
2022/06/19 13:33:09;;;;;;;12.82;1.65;;;33.70;69.40;;;;;;2585376;54;20036;31
2022/06/19 13:35:50;;;;;;;9.20;1.80;;;33.70;68.50;;;;;;2585220;54;21395;31
2022/06/19 13:38:36;;;;;;;5.63;1.73;;;33.70;69.50;;;;;;2584807;54;20030;31
2022/06/19 13:41:21;;;;;;;12.18;1.65;;;33.70;69.00;;;;;;2603409;46;20038;31
2022/06/19 13:44:05;;;;;;;9.60;1.70;;;33.60;68.70;;;;;;2585180;54;20134;31
2022/06/19 13:46:41;;;;;;;7.43;2.05;;;33.50;68.80;;;;;;2754414;31;22385;31
2022/06/19 13:49:20;;;;;;;10.30;1.85;;;33.50;69.50;;;;;;2594831;46;20808;31
2022/06/19 13:52:18;;;;;;;5.38;1.45;;;33.60;69.60;;;;;;2585184;54;20046;31
2022/06/19 13:55:00;;;;;;;11.30;2.40;;;33.60;69.40;;;;;;2585351;54;20804;31
2022/06/19 13:57:55;;;;;;;9.15;2.35;;;33.70;70.10;;;;;;2604131;46;20065;31
2022/06/19 14:00:35;;;;;;;13.68;2.22;;;33.60;69.40;;;;;;2604348;46;20027;31
2022/06/19 14:06:35;;;;;;;10.30;2.40;;;33.40;69.80;;;;;;2585367;54;20048;31
2022/06/19 14:09:40;;;;;;;16.17;2.42;;;33.30;70.10;;;;;;2585475;54;20035;31
2022/06/19 14:12:30;;;;;;;9.23;1.73;;;33.30;70.40;;;;;;2585010;54;20026;31
2022/06/19 14:15:28;;;;;;;15.60;2.28;;;33.30;70.50;;;;;;2585881;54;20049;31
2022/06/19 14:18:26;;;;;;;10.35;2.15;;;33.40;71.20;;;;;;2755417;31;22516;31
2022/06/19 14:21:30;;;;;;;6.38;1.60;;;33.50;70.30;;;;;;2604646;46;19935;31
2022/06/19 14:27:30;;;;;;;8.48;1.92;;;33.60;70.60;;;;;;2604240;46;20022;31
2022/06/19 14:30:07;;;;;;;9.80;2.10;;;33.60;70.50;;;;;;2586048;54;20789;31
2022/06/19 14:32:54;;;;;;;8.80;1.65;;;33.60;70.60;;;;;;2586261;54;20026;31
2022/06/19 14:35:46;;;;;;;8.35;1.75;;;33.60;70.50;;;;;;2604583;46;20022;31
2022/06/19 14:38:26;;;;;;;6.93;1.63;;;33.60;70.70;;;;;;2586197;54;20833;31
2022/06/19 14:41:07;;;;;;;6.35;1.70;;;33.50;70.20;;;;;;2586240;54;20073;31
2022/06/19 14:53:53;;;;;;;15.30;2.20;;;33.20;70.50;;;;;;2585883;54;20903;31
2022/06/19 14:56:58;;;;;;;7.35;1.88;;;33.20;71.00;;;;;;2586030;54;20022;31
2022/06/19 15:00:02;;;;;;;7.90;2.30;;;33.10;70.60;;;;;;2586153;54;20951;31
2022/06/19 15:09:08;;;;;;;9.13;1.30;;;33.20;70.40;;;;;;2586003;54;20672;31
2022/06/19 15:14:47;;;;;;;9.67;2.07;;;33.10;71.10;;;;;;2604528;46;20033;31
2022/06/19 15:17:38;;;;;;;10.88;2.25;;;33.00;70.90;;;;;;2585997;54;20081;31
2022/06/19 15:20:42;;;;;;;11.17;2.23;;;33.10;71.00;;;;;;2604228;46;20177;31
2022/06/19 15:23:43;;;;;;;6.65;1.25;;;33.00;70.60;;;;;;2604378;46;20030;31
2022/06/19 15:26:35;;;;;;;6.00;1.43;;;32.90;70.70;;;;;;2586058;54;20033;31
2022/06/19 15:29:39;;;;;;;6.53;1.83;;;32.80;71.00;;;;;;2585606;54;20026;31
2022/06/19 15:32:47;;;;;;;9.60;2.10;;;32.80;71.20;;;;;;2604144;46;20977;31
2022/06/19 15:36:03;;;;;;;4.55;1.70;;;32.80;71.40;;;;;;2683928;39;21422;31
2022/06/19 15:39:14;;;;;;;12.43;1.93;;;32.70;71.10;;;;;;2754791;31;22464;31
2022/06/19 15:42:06;;;;;;;4.78;1.77;;;32.70;70.80;;;;;;2589219;46;20086;31
2022/06/19 15:45:16;;;;;;;6.00;1.75;;;32.60;70.30;;;;;;2586006;54;20033;31
2022/06/19 15:57:30;;;;;;;6.40;1.70;;;32.60;70.30;;;;;;2585914;54;20026;31
2022/06/19 16:00:16;;;;;;;7.45;1.70;;;32.50;70.40;;;;;;2585800;54;20775;31
2022/06/19 16:16:23;;;;;;;8.30;2.00;;;32.40;69.90;;;;;;2604102;46;20030;31
2022/06/19 16:22:48;;;;;;;8.13;1.40;;;32.30;69.60;;;;;;2585483;54;21123;31
2022/06/19 16:28:30;;;;;;;9.10;1.87;;;32.20;70.00;;;;;;2585547;54;20297;31
2022/06/19 16:33:46;;;;;;;5.65;1.90;;;32.30;70.70;;;;;;2585558;54;20048;31
2022/06/19 16:54:36;;;;;;;5.38;1.45;;;32.00;71.10;;;;;;2585883;54;20026;31
2022/06/19 17:04:58;;;;;;;5.13;1.57;;;31.80;71.30;;;;;;2585359;54;20944;31
2022/06/19 17:23:56;;;;;;;;;;;;;;;;;;;;;
2022/06/19 17:33:03;;;;;;;5.67;1.63;;;31.30;73.40;;;;;;2585559;54;20056;31
2022/06/19 17:36:07;;;;;;;3.15;1.30;;;31.30;73.90;;;;;;2585233;54;20068;31
2022/06/19 17:39:02;;;;;;;8.55;1.90;;;31.20;74.20;;;;;;2584756;54;20054;31
2022/06/19 17:41:46;;;;;;;5.30;1.90;;;31.20;74.40;;;;;;2584821;54;20041;31
2022/06/19 17:44:44;;;;;;;6.30;2.10;;;31.10;74.70;;;;;;2584824;54;20863;31
2022/06/19 17:47:28;;;;;;;3.55;1.35;;;31.00;74.70;;;;;;2584642;54;20770;31
2022/06/19 17:50:02;;;;;;;4.90;2.00;;;30.90;75.00;;;;;;2584604;54;20026;31
2022/06/19 17:52:56;;;;;;;12.20;1.83;;;31.00;75.30;;;;;;2603194;46;20942;31
2022/06/19 17:55:58;;;;;;;4.95;1.20;;;30.90;75.30;;;;;;2584850;54;20035;31
2022/06/19 17:58:43;;;;;;;7.72;2.08;;;30.80;75.60;;;;;;2603168;46;20117;31